Time;durP1;ratioP1;P1;durP2;ratioP2;P2;SDS_P1;SDS_P2;PMS_P1;PMS_P2;Temp;Humidity;BMP_temperature;BMP_pressure;BME280_temperature;BME280_humidity;BME280_pressure;Samples;Min_cycle;Max_cycle;Signal;HPM_P1;HPM_P2
2022/02/26 00:01:49;;;;;;;18.40;6.38;;;3.90;99.90;;;1.34;100.00;102058.66;5051422;28;20744;-84
2022/02/26 00:04:17;;;;;;;27.83;6.82;;;3.90;99.90;;;1.33;100.00;102057.78;5049170;28;20049;-85
2022/02/26 00:06:44;;;;;;;25.08;6.68;;;3.90;99.90;;;1.29;100.00;102064.25;5059742;28;20090;-85
2022/02/26 00:09:13;;;;;;;23.02;6.75;;;3.90;99.90;;;1.27;100.00;102073.34;5047400;28;20044;-85
2022/02/26 00:11:41;;;;;;;25.08;7.00;;;3.90;99.90;;;1.21;100.00;102085.28;5049641;28;20422;-84
2022/02/26 00:14:08;;;;;;;25.58;6.97;;;3.80;99.90;;;1.22;100.00;102088.81;5051124;28;20117;-85
2022/02/26 00:16:35;;;;;;;23.58;7.20;;;3.80;99.90;;;1.21;100.00;102089.78;5050179;28;20049;-85
2022/02/26 00:19:04;;;;;;;26.30;6.43;;;3.80;99.90;;;1.22;100.00;102097.75;5050082;28;20115;-85
2022/02/26 00:21:31;;;;;;;32.50;7.18;;;3.80;99.90;;;1.20;100.00;102099.66;5050669;28;20052;-85
2022/02/26 00:23:59;;;;;;;20.33;6.80;;;3.80;99.90;;;1.19;100.00;102105.09;5050612;28;20044;-85
2022/02/26 00:26:27;;;;;;;23.85;7.07;;;3.80;99.90;;;1.16;100.00;102124.88;5050516;28;20047;-85
2022/02/26 00:28:54;;;;;;;29.63;7.32;;;3.70;99.90;;;1.08;100.00;102130.66;5050533;28;20044;-85
2022/02/26 00:31:22;;;;;;;21.48;6.38;;;3.70;99.90;;;1.05;100.00;102125.47;5039548;28;20040;-85
2022/02/26 00:33:49;;;;;;;24.88;6.55;;;3.70;99.90;;;1.10;100.00;102128.75;5050651;28;20076;-85
2022/02/26 00:36:16;;;;;;;27.45;7.00;;;3.70;99.90;;;1.13;100.00;102133.97;5032329;28;20041;-85
2022/02/26 00:38:43;;;;;;;23.67;6.75;;;3.70;99.90;;;1.11;100.00;102130.50;5050850;28;20044;-85
2022/02/26 00:41:10;;;;;;;26.42;6.53;;;3.70;99.90;;;1.12;100.00;102131.34;5049917;28;20475;-85
2022/02/26 00:43:39;;;;;;;22.98;6.68;;;3.70;99.90;;;1.20;100.00;102133.63;5050537;28;20541;-85
2022/02/26 00:46:07;;;;;;;16.30;6.38;;;3.60;99.90;;;1.24;100.00;102137.88;5050202;28;20932;-86
2022/02/26 00:51:21;;;;;;;17.80;6.50;;;3.70;99.90;;;1.21;100.00;102135.38;5091261;28;20127;-91
2022/02/26 00:53:48;;;;;;;24.23;7.50;;;3.70;99.90;;;1.25;100.00;102161.06;5091970;28;20047;-92
2022/02/26 00:56:16;;;;;;;20.50;7.00;;;3.70;99.90;;;1.29;100.00;102154.56;5091464;28;20553;-91
2022/02/26 00:58:45;;;;;;;18.67;6.05;;;3.90;99.90;;;1.32;100.00;102154.41;5071483;28;20486;-90
2022/02/26 01:01:12;;;;;;;27.38;6.90;;;3.70;99.90;;;1.32;100.00;102154.41;5069299;28;20139;-90
2022/02/26 01:03:41;;;;;;;25.02;7.03;;;3.70;99.90;;;1.36;100.00;102161.34;5070406;28;20032;-90
2022/02/26 01:06:08;;;;;;;25.88;7.47;;;3.80;99.90;;;1.41;100.00;102167.34;5068299;28;20059;-90
2022/02/26 01:08:35;;;;;;;22.20;6.72;;;3.90;99.90;;;1.49;100.00;102159.72;5069901;28;20114;-92
2022/02/26 01:11:04;;;;;;;23.30;7.28;;;3.80;99.90;;;1.63;100.00;102164.31;5069985;28;20549;-89
2022/02/26 01:13:32;;;;;;;19.33;7.05;;;3.80;99.90;;;1.56;100.00;102166.47;5069814;28;20109;-89
2022/02/26 01:16:01;;;;;;;22.90;8.13;;;3.90;99.90;;;1.63;100.00;102169.66;5068637;28;20044;-90
2022/02/26 01:18:28;;;;;;;27.85;7.63;;;3.90;99.90;;;1.61;100.00;102165.34;5065125;28;20098;-90
2022/02/26 01:20:55;;;;;;;20.75;7.20;;;3.90;99.90;;;1.59;100.00;102159.22;5052626;28;20465;-90
2022/02/26 01:23:23;;;;;;;27.13;7.93;;;3.90;99.90;;;1.65;100.00;102174.97;5061060;28;20145;-90
2022/02/26 01:25:50;;;;;;;28.33;7.95;;;4.00;99.90;;;1.74;100.00;102169.09;5065063;28;20114;-92
2022/02/26 01:28:17;;;;;;;25.83;8.10;;;4.00;99.90;;;1.84;100.00;102172.09;5069352;28;20151;-90
2022/02/26 01:30:45;;;;;;;29.20;8.20;;;4.10;99.90;;;1.92;100.00;102168.03;5069046;28;20060;-91
2022/02/26 01:33:13;;;;;;;29.58;8.15;;;4.10;99.90;;;1.99;100.00;102168.53;5069977;28;20068;-91
2022/02/26 01:35:41;;;;;;;24.85;7.53;;;4.10;99.90;;;2.01;100.00;102168.47;5064630;28;20048;-90
2022/02/26 01:38:08;;;;;;;32.08;7.40;;;4.10;99.90;;;2.04;100.00;102176.34;5069056;28;20072;-90
2022/02/26 01:40:36;;;;;;;28.05;7.65;;;4.10;99.90;;;2.00;100.00;102169.41;5069111;28;20498;-90
2022/02/26 01:43:03;;;;;;;24.40;7.43;;;4.10;99.90;;;1.97;100.00;102178.50;5068655;28;20040;-90
2022/02/26 01:45:31;;;;;;;25.27;7.93;;;4.10;99.90;;;1.98;100.00;102188.31;5069233;28;20044;-90
2022/02/26 01:47:58;;;;;;;19.75;7.60;;;4.10;99.90;;;2.00;100.00;102181.03;5018075;28;20085;-90
2022/02/26 01:50:29;;;;;;;24.88;8.13;;;4.20;99.90;;;2.02;100.00;102171.06;5051841;28;20042;-90
2022/02/26 01:52:58;;;;;;;21.63;9.10;;;4.10;99.90;;;2.00;100.00;102167.59;4971274;28;20573;-90
2022/02/26 01:55:26;;;;;;;26.83;8.85;;;4.20;99.90;;;2.07;100.00;102171.63;4986747;28;20034;-91
2022/02/26 01:57:54;;;;;;;36.22;10.52;;;4.20;99.90;;;2.08;100.00;102183.28;4986766;28;20108;-91
2022/02/26 02:00:21;;;;;;;33.70;10.27;;;4.20;99.90;;;2.11;100.00;102175.03;4986667;28;20511;-90
2022/02/26 02:02:53;;;;;;;27.25;10.13;;;4.30;99.90;;;2.09;100.00;102176.94;4986648;28;20089;-90
2022/02/26 02:05:21;;;;;;;28.88;10.18;;;4.30;99.90;;;2.10;100.00;102176.00;4987224;28;20052;-90
2022/02/26 02:07:50;;;;;;;32.13;9.05;;;4.30;99.90;;;2.08;100.00;102178.75;4988384;28;20616;-92
2022/02/26 02:10:17;;;;;;;32.13;9.30;;;4.30;99.90;;;2.06;100.00;102169.06;4986600;28;20038;-90
2022/02/26 02:12:45;;;;;;;29.70;10.00;;;4.30;99.90;;;2.14;100.00;102183.78;4986450;28;20516;-91
2022/02/26 02:15:12;;;;;;;30.95;10.05;;;4.30;99.90;;;2.18;100.00;102192.53;4986940;28;20080;-91
2022/02/26 02:17:41;;;;;;;31.27;10.68;;;4.30;99.90;;;2.23;100.00;102177.00;4986372;28;20070;-91
2022/02/26 02:20:10;;;;;;;31.50;10.98;;;4.30;99.90;;;2.17;100.00;102173.81;4986503;28;20076;-89
2022/02/26 02:22:39;;;;;;;32.70;10.27;;;4.30;99.90;;;2.20;100.00;102179.88;5052638;28;20451;-91
2022/02/26 02:25:08;;;;;;;32.28;10.10;;;4.30;99.90;;;2.16;100.00;102181.00;4976324;28;20053;-90
2022/02/26 02:27:35;;;;;;;22.90;9.70;;;4.30;99.90;;;2.18;100.00;102180.91;4986641;28;20049;-90
2022/02/26 02:30:03;;;;;;;20.95;9.45;;;4.30;99.90;;;2.23;100.00;102187.75;5070049;28;20074;-90
2022/02/26 02:32:30;;;;;;;28.85;10.20;;;4.40;99.90;;;2.20;100.00;102198.66;5050424;28;20062;-90
2022/02/26 02:34:57;;;;;;;32.22;10.20;;;4.40;99.90;;;2.12;100.00;102193.75;5040341;28;20104;-89
2022/02/26 02:37:24;;;;;;;28.63;10.55;;;4.30;99.90;;;2.14;100.00;102196.34;4986744;28;20042;-89
2022/02/26 02:39:53;;;;;;;27.88;10.27;;;4.30;99.90;;;2.18;100.00;102200.56;5069725;28;20068;-89
2022/02/26 02:42:20;;;;;;;28.40;10.30;;;4.30;99.90;;;2.21;100.00;102205.78;4986707;28;20046;-89
2022/02/26 02:44:48;;;;;;;32.95;11.18;;;4.30;99.90;;;2.21;100.00;102200.41;4986559;28;20046;-90
2022/02/26 02:47:15;;;;;;;33.25;10.55;;;4.40;99.90;;;2.22;100.00;102202.13;4986793;28;20046;-90
2022/02/26 02:49:43;;;;;;;27.52;10.05;;;4.40;99.90;;;2.18;100.00;102203.25;5054111;28;20081;-90
2022/02/26 02:52:10;;;;;;;33.17;11.02;;;4.40;99.90;;;2.18;100.00;102205.94;4986811;28;20042;-90
2022/02/26 02:54:39;;;;;;;30.73;10.75;;;4.40;99.90;;;2.17;100.00;102204.22;4986711;28;20462;-89
2022/02/26 02:57:07;;;;;;;25.90;10.32;;;4.30;99.90;;;2.22;100.00;102207.50;4986743;28;20419;-89
2022/02/26 02:59:34;;;;;;;29.77;11.38;;;4.40;99.90;;;2.19;100.00;102209.50;5040492;28;20042;-90
2022/02/26 03:02:02;;;;;;;27.45;10.02;;;4.40;99.90;;;2.13;100.00;102203.53;4977845;28;20130;-89
2022/02/26 03:04:32;;;;;;;29.58;11.75;;;4.30;99.90;;;2.24;100.00;102210.09;4968517;28;20050;-89
2022/02/26 03:06:59;;;;;;;28.50;11.25;;;4.30;99.90;;;2.20;100.00;102209.41;5034249;28;20047;-90
2022/02/26 03:09:27;;;;;;;37.22;11.55;;;4.40;99.90;;;2.26;100.00;102208.19;4967405;28;20124;-90
2022/02/26 03:11:54;;;;;;;28.83;11.32;;;4.40;99.90;;;2.16;100.00;102202.47;4986371;28;20526;-89
2022/02/26 03:14:23;;;;;;;26.77;10.85;;;4.40;99.90;;;2.20;100.00;102219.28;4989002;28;20129;-89
2022/02/26 03:16:50;;;;;;;31.02;11.77;;;4.40;99.90;;;2.17;100.00;102217.66;5053125;28;20619;-89
2022/02/26 03:19:17;;;;;;;27.67;10.75;;;4.30;99.90;;;2.11;100.00;102220.69;4989277;28;20395;-90
2022/02/26 03:21:45;;;;;;;25.10;10.93;;;4.30;99.90;;;2.14;100.00;102204.41;4989250;28;20050;-90
2022/02/26 03:24:12;;;;;;;38.13;12.27;;;4.30;99.90;;;2.22;100.00;102202.13;4988974;28;20491;-90
2022/02/26 03:26:39;;;;;;;31.42;12.48;;;4.30;99.90;;;2.23;100.00;102208.34;4988995;28;20060;-89
2022/02/26 03:29:09;;;;;;;32.95;10.88;;;4.40;99.90;;;2.27;100.00;102204.56;4988521;28;20162;-89
2022/02/26 03:31:38;;;;;;;31.38;12.75;;;4.40;99.90;;;2.32;100.00;102206.03;4978486;28;20377;-90
2022/02/26 03:34:06;;;;;;;27.25;10.98;;;4.40;99.90;;;2.25;100.00;102210.03;4989142;28;20034;-91
2022/02/26 03:36:34;;;;;;;29.05;11.73;;;4.40;99.90;;;2.23;100.00;102211.03;4988920;28;20088;-89
2022/02/26 03:39:02;;;;;;;27.15;10.68;;;4.30;99.90;;;2.08;100.00;102212.81;4989227;28;20127;-90
2022/02/26 03:41:29;;;;;;;32.78;12.00;;;4.30;99.90;;;2.06;100.00;102222.78;4976203;28;20104;-90
2022/02/26 03:43:57;;;;;;;25.88;10.88;;;4.30;99.90;;;2.02;100.00;102230.13;4986393;28;20046;-89
2022/02/26 03:46:24;;;;;;;29.73;11.60;;;4.20;99.90;;;1.99;100.00;102226.75;4988855;28;20077;-89
2022/02/26 03:48:53;;;;;;;28.88;13.13;;;4.20;99.90;;;1.98;100.00;102225.00;4988993;28;20125;-90
2022/02/26 03:51:20;;;;;;;35.28;13.13;;;4.20;99.90;;;1.94;100.00;102222.53;5045380;28;20047;-89
2022/02/26 03:53:48;;;;;;;31.45;14.88;;;4.20;99.90;;;1.96;100.00;102227.78;4989165;28;20129;-90
2022/02/26 03:56:15;;;;;;;39.38;13.77;;;4.20;99.90;;;1.92;100.00;102220.84;4988932;28;20091;-90
2022/02/26 03:58:45;;;;;;;40.20;14.90;;;4.20;99.90;;;1.93;100.00;102227.97;4988790;28;20065;-91
2022/02/26 04:01:12;;;;;;;37.05;14.55;;;4.10;99.90;;;1.88;100.00;102235.41;4987695;28;20117;-89
2022/02/26 04:03:39;;;;;;;44.72;17.63;;;4.10;99.90;;;1.81;100.00;102239.38;4988989;28;20133;-89
2022/02/26 04:06:08;;;;;;;47.53;16.35;;;4.10;99.90;;;1.82;100.00;102239.28;4988476;28;20065;-90
2022/02/26 04:08:35;;;;;;;39.97;16.20;;;4.10;99.90;;;1.81;100.00;102242.94;4989031;28;20137;-89
2022/02/26 04:11:03;;;;;;;46.83;15.70;;;4.10;99.90;;;1.80;100.00;102240.34;5055330;28;20393;-91
2022/02/26 04:13:30;;;;;;;37.35;16.15;;;4.10;99.90;;;1.83;100.00;102243.72;4977612;28;20046;-89
2022/02/26 04:15:57;;;;;;;37.80;16.23;;;4.10;99.90;;;1.89;100.00;102246.06;4990835;28;20042;-90
2022/02/26 04:18:25;;;;;;;33.45;16.45;;;4.10;99.90;;;1.80;100.00;102243.03;4974782;28;20097;-90
2022/02/26 04:20:52;;;;;;;44.80;17.40;;;4.10;99.90;;;1.71;100.00;102239.91;4988489;28;20070;-89
2022/02/26 04:23:20;;;;;;;38.95;16.15;;;4.10;99.90;;;1.67;100.00;102232.09;4988476;28;20426;-90
2022/02/26 04:25:48;;;;;;;43.65;16.83;;;4.10;99.90;;;1.62;100.00;102240.41;4988268;28;20096;-89
2022/02/26 04:28:15;;;;;;;48.10;18.30;;;4.00;99.90;;;1.56;100.00;102246.97;4987920;28;20073;-89
2022/02/26 04:30:42;;;;;;;42.65;17.15;;;4.00;99.90;;;1.48;100.00;102249.19;5053799;28;20120;-90
2022/02/26 04:33:20;;;;;;;43.63;17.38;;;3.90;99.90;;;1.49;100.00;102245.56;4990350;28;20130;-88
2022/02/26 04:35:47;;;;;;;34.63;16.48;;;3.90;99.90;;;1.48;100.00;102249.19;4988194;28;20412;-90
2022/02/26 04:38:14;;;;;;;41.10;16.92;;;3.90;99.90;;;1.50;100.00;102251.78;4988337;28;20133;-89
2022/02/26 04:40:43;;;;;;;39.58;16.95;;;3.90;99.90;;;1.40;100.00;102254.09;4987608;28;20117;-91
2022/02/26 04:43:10;;;;;;;45.45;17.98;;;4.00;99.90;;;1.38;100.00;102255.16;4985862;28;20516;-90
2022/02/26 04:45:38;;;;;;;35.50;16.98;;;3.80;99.90;;;1.33;100.00;102253.59;4988135;28;20051;-88
2022/02/26 04:48:06;;;;;;;41.55;17.25;;;3.80;99.90;;;1.22;100.00;102253.28;4987833;28;20053;-89
2022/02/26 04:50:33;;;;;;;37.22;17.70;;;3.80;99.90;;;1.21;100.00;102256.91;5071913;28;20049;-90
2022/02/26 04:53:03;;;;;;;43.47;17.88;;;3.80;99.90;;;1.13;100.00;102249.25;4991049;28;20050;-89
2022/02/26 04:55:31;;;;;;;43.05;18.00;;;3.70;99.90;;;1.10;100.00;102254.78;5058644;28;20149;-90
2022/02/26 04:57:59;;;;;;;45.90;19.17;;;3.70;99.90;;;1.09;100.00;102250.38;4973870;28;20740;-90
2022/02/26 05:00:27;;;;;;;44.78;19.13;;;3.70;99.90;;;1.04;100.00;102249.75;4978829;28;20456;-90
2022/02/26 05:02:54;;;;;;;42.55;18.48;;;3.60;99.90;;;0.98;100.00;102263.47;4978106;28;20484;-91
2022/02/26 05:05:21;;;;;;;46.85;19.50;;;3.60;99.90;;;1.01;100.00;102266.00;4989362;28;20058;-89
2022/02/26 05:07:49;;;;;;;58.92;19.55;;;3.60;99.90;;;1.04;100.00;102254.25;4989319;28;20050;-91
2022/02/26 05:10:16;;;;;;;64.80;19.98;;;3.60;99.90;;;1.07;100.00;102254.94;4988451;28;20068;-90
2022/02/26 05:12:44;;;;;;;53.03;19.02;;;3.60;99.90;;;1.03;100.00;102253.38;4974206;28;20121;-89
2022/02/26 05:15:12;;;;;;;51.72;19.80;;;3.60;99.90;;;1.00;100.00;102253.53;5063277;28;20587;-89
2022/02/26 05:17:41;;;;;;;68.38;20.70;;;3.50;99.90;;;1.01;100.00;102259.75;4987683;28;20050;-90
2022/02/26 05:20:12;;;;;;;60.05;20.40;;;3.60;99.90;;;1.03;100.00;102269.47;4987885;28;20069;-91
2022/02/26 05:22:39;;;;;;;74.43;21.35;;;3.60;99.90;;;1.02;100.00;102267.72;4988133;28;20051;-90
2022/02/26 05:25:10;;;;;;;55.30;20.55;;;3.70;99.90;;;0.98;100.00;102272.38;4987417;28;20131;-89
2022/02/26 05:27:37;;;;;;;95.57;20.73;;;3.50;99.90;;;0.96;100.00;102284.13;4983932;28;20039;-89
2022/02/26 05:30:06;;;;;;;52.65;19.60;;;3.50;99.90;;;0.91;100.00;102275.44;4986426;28;20038;-89
2022/02/26 05:32:35;;;;;;;50.10;18.58;;;3.50;99.90;;;0.89;100.00;102282.69;4987649;28;20103;-89
2022/02/26 05:35:02;;;;;;;100.13;21.42;;;3.40;99.90;;;0.88;100.00;102284.53;4987099;28;20486;-91
2022/02/26 05:37:29;;;;;;;60.00;20.98;;;3.50;99.90;;;0.84;100.00;102290.09;5071351;28;20127;-90
2022/02/26 05:39:57;;;;;;;65.72;20.08;;;3.40;99.90;;;0.82;100.00;102294.66;5051091;28;20038;-90
2022/02/26 05:42:24;;;;;;;110.90;20.92;;;3.40;99.90;;;0.90;100.00;102298.72;4981445;28;20031;-88
2022/02/26 05:44:51;;;;;;;63.15;21.92;;;3.40;99.90;;;0.90;100.00;102311.25;5052095;28;20066;-89
2022/02/26 05:47:19;;;;;;;62.60;21.30;;;3.40;99.90;;;0.88;100.00;102307.78;4987174;28;20057;-90
2022/02/26 05:49:47;;;;;;;58.22;20.95;;;3.30;99.90;;;0.85;100.00;102305.25;4986685;28;20588;-89
2022/02/26 05:52:15;;;;;;;48.28;21.33;;;3.30;99.90;;;0.87;100.00;102322.97;5069383;28;20073;-90
2022/02/26 05:54:42;;;;;;;56.10;22.02;;;3.30;99.90;;;0.92;100.00;102325.44;4987981;28;20392;-91
2022/02/26 06:07:51;;;;;;;68.03;23.52;;;3.40;99.90;;;1.02;100.00;102350.81;4946535;29;20055;-91
2022/02/26 06:10:18;;;;;;;55.78;20.50;;;3.40;99.90;;;1.01;100.00;102354.47;5031221;28;20453;-89
2022/02/26 06:12:46;;;;;;;48.13;22.25;;;3.40;99.90;;;1.01;100.00;102348.22;4947813;29;20043;-90
2022/02/26 06:15:13;;;;;;;52.58;21.80;;;3.40;99.90;;;1.09;100.00;102349.56;5014018;28;20130;-90
2022/02/26 06:17:40;;;;;;;57.42;23.33;;;3.40;99.90;;;1.11;100.00;102362.91;4950500;28;20048;-89
2022/02/26 06:20:13;;;;;;;99.90;25.67;;;3.50;99.90;;;1.16;100.00;102364.41;4947928;29;20100;-90
2022/02/26 06:22:40;;;;;;;101.55;25.20;;;3.50;99.90;;;1.23;100.00;102374.81;4947987;29;20047;-91
2022/02/26 06:25:12;;;;;;;97.40;24.48;;;3.50;99.90;;;1.26;100.00;102372.00;4947740;29;20062;-91
2022/02/26 06:27:41;;;;;;;77.68;24.10;;;3.50;99.90;;;1.29;100.00;102372.69;4948239;28;20043;-90
2022/02/26 06:30:11;;;;;;;92.15;25.42;;;3.60;99.90;;;1.37;100.00;102380.34;5028128;28;20059;-90
2022/02/26 06:32:41;;;;;;;97.80;24.42;;;3.60;99.90;;;1.35;100.00;102382.22;4948368;28;20130;-89
2022/02/26 06:35:12;;;;;;;94.63;25.60;;;3.60;99.90;;;1.37;100.00;102388.38;5014173;28;20105;-88
2022/02/26 06:37:39;;;;;;;91.10;24.40;;;3.60;99.90;;;1.39;100.00;102383.84;5015031;28;20047;-89
2022/02/26 06:40:10;;;;;;;102.07;25.83;;;3.60;99.90;;;1.38;100.00;102392.81;4947549;29;20051;-88
2022/02/26 06:42:37;;;;;;;100.00;25.23;;;3.60;99.90;;;1.40;100.00;102392.75;4944900;28;20082;-94
2022/02/26 06:45:09;;;;;;;114.63;25.50;;;3.70;99.90;;;1.43;100.00;102396.13;4948188;28;20039;-93
2022/02/26 06:47:40;;;;;;;97.47;26.13;;;3.70;99.90;;;1.39;100.00;102405.28;4948395;28;20109;-89
2022/02/26 06:50:09;;;;;;;68.35;23.08;;;3.70;99.90;;;1.49;100.00;102405.69;5018938;28;20134;-91
2022/02/26 06:52:40;;;;;;;109.55;26.83;;;3.70;99.90;;;1.51;100.00;102407.34;4953307;29;20524;-96
2022/02/26 06:55:13;;;;;;;104.47;25.40;;;3.70;99.90;;;1.47;100.00;102410.28;4952825;29;20043;-89
2022/02/26 06:57:40;;;;;;;93.60;25.73;;;3.70;99.90;;;1.46;100.00;102411.19;5026626;22;20127;-80
2022/02/26 07:00:10;;;;;;;77.57;25.15;;;3.70;99.90;;;1.48;100.00;102412.84;5051535;28;20043;-80
2022/02/26 07:02:38;;;;;;;115.07;27.77;;;3.80;99.90;;;1.53;100.00;102412.63;5052323;28;20380;-81
2022/02/26 07:05:06;;;;;;;74.80;25.00;;;3.80;99.90;;;1.59;100.00;102417.66;5052401;28;20044;-79
2022/02/26 07:07:34;;;;;;;100.07;29.13;;;3.80;99.90;;;1.65;100.00;102416.47;5051171;28;20041;-80
2022/02/26 07:10:01;;;;;;;75.47;25.35;;;3.80;99.90;;;1.68;100.00;102419.03;5051730;28;20129;-80
2022/02/26 07:12:30;;;;;;;233.60;36.90;;;3.80;99.90;;;1.72;100.00;102418.78;5049916;28;20038;-80
2022/02/26 07:14:57;;;;;;;148.60;29.42;;;3.90;99.90;;;1.70;100.00;102414.44;5054122;28;20055;-84
2022/02/26 07:17:24;;;;;;;185.50;32.10;;;3.90;99.90;;;1.70;100.00;102419.81;5053880;28;20128;-83
2022/02/26 07:19:52;;;;;;;206.77;33.85;;;3.90;99.90;;;1.68;100.00;102432.44;5054619;28;20560;-83
2022/02/26 07:22:19;;;;;;;91.70;28.70;;;3.90;99.90;;;1.67;100.00;102430.69;5050708;28;20045;-83
2022/02/26 07:24:47;;;;;;;213.93;31.48;;;3.90;99.90;;;1.78;100.00;102427.47;5043591;28;20098;-82
2022/02/26 07:27:16;;;;;;;123.68;29.38;;;3.90;99.90;;;1.85;100.00;102416.31;5040292;28;20711;-82
2022/02/26 07:29:45;;;;;;;383.05;42.20;;;3.90;99.90;;;1.79;100.00;102431.84;5043094;28;20057;-82
2022/02/26 07:32:12;;;;;;;119.50;28.98;;;4.00;99.90;;;1.76;100.00;102431.06;5045863;28;20116;-82
2022/02/26 07:34:40;;;;;;;259.67;33.45;;;4.00;99.90;;;1.77;100.00;102431.94;5040788;28;20064;-82
2022/02/26 07:37:07;;;;;;;182.82;30.83;;;4.00;99.90;;;1.78;100.00;102428.31;5050382;28;20065;-82
2022/02/26 07:39:34;;;;;;;274.10;36.25;;;4.00;99.90;;;1.79;100.00;102432.75;5045830;28;20044;-81
2022/02/26 07:42:02;;;;;;;154.27;27.77;;;4.00;99.90;;;1.79;100.00;102437.22;5037542;28;20130;-81
2022/02/26 07:44:29;;;;;;;101.50;29.25;;;4.00;99.90;;;1.87;100.00;102440.41;5041809;28;20038;-82
2022/02/26 07:46:58;;;;;;;139.98;29.25;;;4.10;99.90;;;1.95;100.00;102436.34;5078339;28;20484;-82
2022/02/26 07:49:26;;;;;;;253.05;31.40;;;4.10;99.90;;;1.99;100.00;102446.94;5051466;28;20069;-81
2022/02/26 07:51:53;;;;;;;139.10;27.05;;;4.10;99.90;;;2.03;100.00;102441.31;5051645;28;20045;-81
2022/02/26 07:54:20;;;;;;;118.05;28.65;;;4.20;99.90;;;2.15;100.00;102437.97;5050630;28;20045;-80
2022/02/26 07:56:47;;;;;;;93.45;26.88;;;4.20;99.90;;;2.17;100.00;102445.06;5034320;28;20567;-82
2022/02/26 07:59:15;;;;;;;98.65;27.52;;;4.20;99.90;;;2.15;100.00;102437.97;4968160;28;20067;-80
2022/02/26 08:01:42;;;;;;;203.60;30.10;;;4.20;99.90;;;2.20;100.00;102440.41;4969801;28;20066;-80
2022/02/26 08:04:10;;;;;;;150.65;27.58;;;4.30;99.90;;;2.04;100.00;102450.25;4969463;28;20039;-84
2022/02/26 08:06:38;;;;;;;100.25;26.17;;;4.30;99.90;;;2.12;100.00;102459.63;4969389;28;20089;-81
2022/02/26 08:09:05;;;;;;;97.35;25.73;;;4.30;99.90;;;2.07;100.00;102452.75;4969496;28;20039;-81
2022/02/26 08:11:32;;;;;;;91.13;26.30;;;4.30;99.90;;;2.02;100.00;102457.50;4968455;28;20121;-81
2022/02/26 08:14:00;;;;;;;101.57;26.20;;;4.30;99.90;;;2.12;100.00;102458.75;4969385;28;20062;-81
2022/02/26 08:16:28;;;;;;;57.00;24.77;;;4.30;99.90;;;2.31;100.00;102466.72;4969594;28;20039;-81
2022/02/26 08:18:55;;;;;;;77.07;26.10;;;4.30;99.90;;;2.37;100.00;102469.06;4969408;28;20049;-81
2022/02/26 08:21:24;;;;;;;59.95;22.65;;;4.50;99.90;;;2.39;100.00;102466.28;4968636;28;20253;-80
2022/02/26 08:23:51;;;;;;;71.40;21.98;;;4.40;99.90;;;2.38;100.00;102470.81;4968462;28;20051;-81
2022/02/26 08:26:20;;;;;;;59.00;21.45;;;4.40;99.90;;;2.34;100.00;102470.09;4973411;28;20066;-80
2022/02/26 08:28:49;;;;;;;79.50;23.52;;;4.40;99.90;;;2.26;100.00;102466.94;5034911;28;20114;-80
2022/02/26 08:31:16;;;;;;;69.60;23.20;;;4.40;99.90;;;2.33;100.00;102468.34;4968685;28;20409;-80
2022/02/26 08:33:44;;;;;;;100.95;25.85;;;4.50;99.90;;;2.51;100.00;102473.66;4968339;28;20121;-83
2022/02/26 08:36:14;;;;;;;75.40;24.15;;;4.50;99.90;;;2.55;100.00;102472.53;5034065;28;20133;-83
2022/02/26 08:38:43;;;;;;;69.10;24.57;;;4.50;99.90;;;2.65;100.00;102471.09;5052706;28;20173;-81
2022/02/26 08:41:10;;;;;;;71.13;25.02;;;4.50;99.90;;;2.79;100.00;102469.47;4968921;28;20042;-79
2022/02/26 08:43:37;;;;;;;65.97;25.67;;;4.60;99.90;;;2.63;100.00;102475.69;4963874;28;20911;-80
2022/02/26 08:46:05;;;;;;;83.95;27.25;;;4.70;99.90;;;2.74;100.00;102480.47;4961262;28;20047;-81
2022/02/26 08:48:32;;;;;;;69.78;25.40;;;4.70;99.90;;;2.68;100.00;102484.34;4967223;28;20114;-81
2022/02/26 08:50:59;;;;;;;96.10;26.63;;;4.70;99.90;;;2.79;100.00;102485.59;4966325;28;20431;-80
2022/02/26 08:53:26;;;;;;;83.00;27.10;;;4.80;99.90;;;2.82;100.00;102490.78;4965495;28;20049;-84
2022/02/26 08:55:55;;;;;;;64.88;26.38;;;4.90;99.90;;;2.71;100.00;102494.94;5020403;28;20112;-78
2022/02/26 08:58:22;;;;;;;88.95;29.58;;;4.90;99.90;;;2.81;100.00;102497.13;4965040;28;20134;-83
2022/02/26 09:00:50;;;;;;;68.05;27.58;;;4.90;99.90;;;2.87;100.00;102499.47;4966396;28;20062;-82
2022/02/26 09:03:19;;;;;;;78.68;27.77;;;4.90;99.90;;;2.99;100.00;102488.06;4967874;28;20054;-87
2022/02/26 09:05:48;;;;;;;71.82;26.95;;;4.90;99.90;;;3.09;100.00;102489.25;4968558;28;20133;-91
2022/02/26 09:08:15;;;;;;;55.47;24.20;;;5.00;99.90;;;3.19;100.00;102496.81;4957388;28;20047;-90
2022/02/26 09:10:43;;;;;;;54.13;24.05;;;5.10;99.90;;;3.23;100.00;102498.34;5030792;28;20463;-89
2022/02/26 09:13:12;;;;;;;59.35;23.27;;;5.00;99.90;;;3.16;100.00;102496.97;5033582;28;20126;-86
2022/02/26 09:15:39;;;;;;;89.53;26.80;;;5.00;99.90;;;3.25;100.00;102500.00;5051556;28;20543;-87
2022/02/26 09:18:07;;;;;;;74.68;26.27;;;5.10;99.90;;;3.15;100.00;102501.50;5036997;28;20051;-85
2022/02/26 09:20:34;;;;;;;64.72;26.08;;;5.10;99.90;;;3.13;100.00;102503.41;5031723;28;20057;-86
2022/02/26 09:23:01;;;;;;;72.22;27.40;;;5.20;99.90;;;3.36;100.00;102502.06;4960154;28;20031;-87
2022/02/26 09:25:28;;;;;;;56.35;23.90;;;5.20;99.90;;;3.50;100.00;102503.97;4963949;28;20049;-87
2022/02/26 09:27:56;;;;;;;85.22;26.55;;;5.30;99.90;;;3.48;100.00;102508.56;5022970;28;20096;-88
2022/02/26 09:30:25;;;;;;;73.45;27.33;;;5.30;99.90;;;3.48;100.00;102512.16;5051364;28;20137;-91
2022/02/26 09:32:52;;;;;;;67.72;25.65;;;5.30;99.90;;;3.47;100.00;102507.72;4974002;28;20115;-88
2022/02/26 09:35:19;;;;;;;67.53;24.65;;;5.40;99.90;;;3.66;100.00;102514.72;4968064;28;20043;-80
2022/02/26 09:37:48;;;;;;;53.40;23.73;;;5.50;99.90;;;3.66;100.00;102523.66;4961782;28;20390;-81
2022/02/26 09:40:15;;;;;;;48.97;21.80;;;5.50;99.90;;;3.60;100.00;102520.44;4949310;28;20130;-82
2022/02/26 09:42:42;;;;;;;62.88;25.20;;;5.50;99.90;;;3.58;100.00;102516.97;4954535;28;20473;-82
2022/02/26 09:45:10;;;;;;;62.10;24.38;;;5.60;99.90;;;3.51;100.00;102525.41;5016178;28;20043;-81
2022/02/26 09:47:39;;;;;;;63.88;24.70;;;5.60;99.90;;;3.48;100.00;102530.09;4967861;28;20042;-82
2022/02/26 09:50:08;;;;;;;61.45;25.02;;;5.60;99.90;;;3.53;100.00;102525.31;4968483;28;20047;-82
2022/02/26 09:52:42;;;;;;;57.50;22.77;;;5.70;99.90;;;3.58;100.00;102527.75;4968814;28;20053;-82
2022/02/26 09:55:10;;;;;;;71.70;25.70;;;5.70;99.90;;;3.59;100.00;102530.34;4948737;29;20035;-86
2022/02/26 09:57:37;;;;;;;60.83;25.42;;;5.70;99.90;;;3.60;100.00;102536.59;4948084;28;20086;-85
2022/02/26 10:00:08;;;;;;;73.40;26.10;;;5.80;99.90;;;3.69;100.00;102533.38;4948451;29;20075;-85
2022/02/26 10:02:39;;;;;;;62.80;25.13;;;5.70;99.90;;;3.83;100.00;102527.19;4946962;28;20133;-85
2022/02/26 10:05:10;;;;;;;67.78;25.75;;;5.80;99.90;;;3.91;100.00;102527.59;4949111;29;20097;-85
2022/02/26 10:07:39;;;;;;;60.58;25.50;;;5.80;99.90;;;4.04;100.00;102530.44;4948985;28;20476;-82
2022/02/26 10:10:19;;;;;;;61.20;25.83;;;5.90;99.90;;;4.01;100.00;102520.69;4952319;28;20047;-96
2022/02/26 10:12:51;;;;;;;65.28;26.13;;;5.90;99.90;;;4.10;100.00;102530.91;5022126;28;20089;-87
2022/02/26 10:15:28;;;;;;;56.50;24.48;;;6.00;99.90;;;4.23;100.00;102525.66;5012131;28;20056;-90
2022/02/26 10:18:09;;;;;;;51.42;23.95;;;6.00;99.90;;;4.23;100.00;102528.34;5012234;28;20071;-92
2022/02/26 10:20:45;;;;;;;55.03;22.98;;;6.10;99.90;;;4.35;100.00;102529.41;4930250;28;20043;-95
2022/02/26 10:23:14;;;;;;;50.92;22.13;;;6.10;99.90;;;4.41;100.00;102534.41;5005744;28;20092;-91
2022/02/26 10:25:42;;;;;;;55.90;22.48;;;6.10;99.90;;;4.52;100.00;102531.06;4972525;28;20618;-92